createdAt,value
2023-05-13T00:01:12.307Z,26.13
2023-05-13T00:03:13.801Z,26.11
2023-05-13T00:05:15.409Z,26.10
2023-05-13T00:07:16.837Z,26.09
2023-05-13T00:09:18.223Z,26.06
2023-05-13T00:11:19.766Z,26.05
2023-05-13T00:13:21.518Z,26.03
2023-05-13T00:15:23.322Z,26.00
2023-05-13T00:17:24.993Z,25.99
2023-05-13T00:19:26.545Z,25.97
2023-05-13T00:21:27.980Z,25.94
2023-05-13T00:23:29.578Z,25.94
2023-05-13T00:25:31.176Z,25.93
2023-05-13T00:27:32.883Z,25.93
2023-05-13T00:29:34.358Z,25.92
2023-05-13T00:31:35.874Z,25.90
2023-05-13T00:33:37.513Z,25.88
2023-05-13T00:35:39.523Z,25.87
2023-05-13T00:37:41.006Z,25.85
2023-05-13T00:39:42.450Z,25.84
2023-05-13T00:41:43.952Z,25.82
2023-05-13T00:43:45.600Z,25.81
2023-05-13T00:45:47.565Z,25.79
2023-05-13T00:47:49.563Z,25.78
2023-05-13T00:49:51.805Z,25.77
2023-05-13T00:51:55.218Z,25.76
2023-05-13T00:53:58.583Z,25.75
2023-05-13T00:56:00.149Z,25.76
2023-05-13T00:58:01.699Z,25.74
2023-05-13T01:00:05.815Z,25.72
2023-05-13T01:02:13.933Z,25.71
2023-05-13T01:04:15.802Z,25.70
2023-05-13T01:06:20.587Z,25.67
2023-05-13T01:08:39.928Z,25.67
2023-05-13T01:10:50.107Z,25.64
2023-05-13T01:12:54.623Z,25.64
2023-05-13T01:15:04.977Z,25.63
2023-05-13T01:17:15.315Z,25.64
2023-05-13T01:19:28.954Z,25.65
2023-05-13T01:21:34.512Z,25.64
2023-05-13T01:23:36.067Z,25.63
2023-05-13T01:25:38.362Z,25.63
2023-05-13T01:27:40.346Z,25.62
2023-05-13T01:29:42.145Z,25.61
2023-05-13T01:31:43.975Z,25.60
2023-05-13T01:33:45.951Z,25.58
2023-05-13T01:35:47.574Z,25.58
2023-05-13T01:37:50.215Z,25.57
2023-05-13T01:39:51.815Z,25.57
2023-05-13T01:41:53.238Z,25.55
2023-05-13T01:43:54.864Z,25.54
2023-05-13T01:46:00.332Z,25.56
2023-05-13T01:48:01.970Z,25.54
2023-05-13T01:50:03.633Z,25.54
2023-05-13T01:52:05.229Z,25.54
2023-05-13T01:54:06.969Z,25.53
2023-05-13T01:56:09.235Z,25.52
2023-05-13T01:58:10.699Z,25.52
2023-05-13T02:00:12.524Z,25.52
2023-05-13T02:02:14.137Z,25.50
2023-05-13T02:04:15.770Z,25.49
2023-05-13T02:06:17.210Z,25.47
2023-05-13T02:08:18.730Z,25.49
2023-05-13T02:10:20.344Z,25.49
2023-05-13T02:12:21.884Z,25.49
2023-05-13T02:14:23.312Z,25.49
2023-05-13T02:16:24.947Z,25.49
2023-05-13T02:18:26.468Z,25.49
2023-05-13T02:20:28.225Z,25.47
2023-05-13T02:22:29.667Z,25.47
2023-05-13T02:24:31.235Z,25.45
2023-05-13T02:26:32.729Z,25.43
2023-05-13T02:28:34.557Z,25.44
2023-05-13T02:30:36.464Z,25.44
2023-05-13T02:32:37.952Z,25.44
2023-05-13T02:34:39.423Z,25.44
2023-05-13T02:36:41.364Z,25.44
2023-05-13T02:38:42.911Z,25.45
2023-05-13T02:40:44.424Z,25.46
2023-05-13T02:42:45.854Z,25.45
2023-05-13T02:44:48.485Z,25.45
2023-05-13T02:46:50.058Z,25.44
2023-05-13T02:48:51.498Z,25.44
2023-05-13T02:50:52.945Z,25.42
2023-05-13T02:52:54.408Z,25.40
2023-05-13T02:54:55.957Z,25.39
2023-05-13T02:56:57.418Z,25.40
2023-05-13T02:58:58.942Z,25.40
2023-05-13T03:01:00.475Z,25.42
2023-05-13T03:03:02.274Z,25.43
2023-05-13T03:05:04.273Z,25.44
2023-05-13T03:07:05.937Z,25.35
2023-05-13T03:09:07.455Z,25.43
2023-05-13T03:11:08.970Z,25.43
2023-05-13T03:13:10.529Z,25.42
2023-05-13T03:15:12.277Z,25.41
2023-05-13T03:17:13.768Z,25.39
2023-05-13T03:19:15.304Z,25.40
2023-05-13T03:21:16.909Z,25.39
2023-05-13T03:23:18.370Z,25.39
2023-05-13T03:25:20.234Z,25.40
2023-05-13T03:27:21.696Z,25.42
2023-05-13T03:29:23.391Z,25.41
2023-05-13T03:31:25.036Z,25.42
2023-05-13T03:33:26.667Z,25.42
2023-05-13T03:35:28.085Z,25.42
2023-05-13T03:37:29.490Z,25.40
2023-05-13T03:39:30.946Z,25.40
2023-05-13T03:41:32.534Z,25.39
2023-05-13T03:43:33.986Z,25.39
2023-05-13T03:45:35.420Z,25.38
2023-05-13T03:47:39.136Z,25.39
2023-05-13T03:49:40.597Z,25.39
2023-05-13T03:51:42.027Z,25.40
2023-05-13T03:53:43.502Z,25.42
2023-05-13T03:55:46.001Z,25.41
2023-05-13T03:57:48.198Z,25.41
2023-05-13T03:59:49.763Z,25.41
2023-05-13T04:01:51.217Z,25.41
2023-05-13T04:03:52.723Z,25.40
2023-05-13T04:05:54.343Z,25.39
2023-05-13T04:07:55.876Z,25.39
2023-05-13T04:09:57.362Z,25.38
2023-05-13T04:11:58.809Z,25.39
2023-05-13T04:14:00.457Z,25.38
2023-05-13T04:16:02.353Z,25.39
2023-05-13T04:18:03.900Z,25.39
2023-05-13T04:20:05.716Z,25.39
2023-05-13T04:22:07.199Z,25.39
2023-05-13T04:24:08.720Z,25.38
2023-05-13T04:26:10.905Z,25.40
2023-05-13T04:28:12.407Z,25.39
2023-05-13T04:30:14.195Z,25.39
2023-05-13T04:32:21.208Z,25.38
2023-05-13T04:34:22.717Z,25.38
2023-05-13T04:36:24.117Z,25.36
2023-05-13T04:38:25.597Z,25.38
2023-05-13T04:40:27.128Z,25.37
2023-05-13T04:42:28.714Z,25.38
2023-05-13T04:44:30.163Z,25.38
2023-05-13T04:46:31.750Z,25.39
2023-05-13T04:48:33.378Z,25.38
2023-05-13T04:50:35.341Z,25.39
2023-05-13T04:52:37.472Z,25.38
2023-05-13T04:54:39.533Z,25.38
2023-05-13T04:56:41.228Z,25.36
2023-05-13T04:58:42.772Z,25.36
2023-05-13T05:00:44.223Z,25.36
2023-05-13T05:02:45.762Z,25.35
2023-05-13T05:04:49.339Z,25.38
2023-05-13T05:06:50.863Z,25.37
2023-05-13T05:08:52.318Z,25.39
2023-05-13T05:10:53.903Z,25.39
2023-05-13T05:12:55.365Z,25.39
2023-05-13T05:14:56.975Z,25.27
2023-05-13T05:16:58.441Z,25.38
2023-05-13T05:18:59.959Z,25.36
2023-05-13T05:21:02.628Z,25.37
2023-05-13T05:23:04.162Z,25.36
2023-05-13T05:25:05.738Z,25.36
2023-05-13T05:27:07.294Z,25.35
2023-05-13T05:29:08.783Z,25.36
2023-05-13T05:31:13.392Z,25.36
2023-05-13T05:33:14.811Z,25.38
2023-05-13T05:35:16.885Z,25.38
2023-05-13T05:37:18.538Z,25.38
2023-05-13T05:39:20.360Z,25.39
2023-05-13T05:41:22.193Z,25.39
2023-05-13T05:43:23.717Z,25.39
2023-05-13T05:45:25.181Z,25.39
2023-05-13T05:47:26.734Z,25.38
2023-05-13T05:49:28.202Z,25.37
2023-05-13T05:51:29.653Z,25.38
2023-05-13T05:53:32.045Z,25.36
2023-05-13T05:55:33.489Z,25.38
2023-05-13T05:57:34.872Z,25.39
2023-05-13T05:59:36.335Z,25.39
2023-05-13T06:01:38.065Z,25.40
2023-05-13T06:03:39.594Z,25.42
2023-05-13T06:05:41.228Z,25.41
2023-05-13T06:07:42.708Z,25.40
2023-05-13T06:09:44.184Z,25.40
2023-05-13T06:11:45.709Z,25.39
2023-05-13T06:13:47.077Z,25.40
2023-05-13T06:15:48.484Z,25.39
2023-05-13T06:17:50.032Z,25.38
2023-05-13T06:19:51.454Z,25.38
2023-05-13T06:21:52.930Z,25.39
2023-05-13T06:23:54.547Z,25.40
2023-05-13T06:25:57.406Z,25.39
2023-05-13T06:27:59.763Z,25.39
2023-05-13T06:30:03.079Z,25.39
2023-05-13T06:32:04.865Z,25.38
2023-05-13T06:34:06.336Z,25.39
2023-05-13T06:36:09.361Z,25.38
2023-05-13T06:38:11.037Z,25.37
2023-05-13T06:40:12.886Z,25.37
2023-05-13T06:42:14.525Z,25.38
2023-05-13T06:44:15.960Z,25.39
2023-05-13T06:46:17.369Z,25.38
2023-05-13T06:48:18.781Z,25.40
2023-05-13T06:50:20.659Z,25.39
2023-05-13T06:52:22.293Z,25.39
2023-05-13T06:54:23.813Z,25.40
2023-05-13T06:56:25.907Z,25.42
2023-05-13T06:58:27.801Z,25.42
2023-05-13T07:00:29.564Z,25.40
2023-05-13T07:02:31.286Z,25.42
2023-05-13T07:04:32.773Z,25.42
2023-05-13T07:06:34.570Z,25.43
2023-05-13T07:08:36.233Z,25.42
2023-05-13T07:10:37.635Z,25.42
2023-05-13T07:12:39.096Z,25.42
2023-05-13T07:14:40.540Z,25.43
2023-05-13T07:16:42.121Z,25.44
2023-05-13T07:18:43.973Z,25.44
2023-05-13T07:20:45.528Z,25.45
2023-05-13T07:22:46.926Z,25.44
2023-05-13T07:24:48.358Z,25.44
2023-05-13T07:26:49.782Z,25.44
2023-05-13T07:28:51.461Z,25.44
2023-05-13T07:30:53.438Z,25.44
2023-05-13T07:32:54.999Z,25.44
2023-05-13T07:34:56.448Z,25.45
2023-05-13T07:36:58.027Z,25.44
2023-05-13T07:38:59.538Z,25.45
2023-05-13T07:41:01.164Z,25.45
2023-05-13T07:43:02.538Z,25.46
2023-05-13T07:45:04.530Z,25.46
2023-05-13T07:47:06.175Z,25.47
2023-05-13T07:49:08.822Z,25.47
2023-05-13T07:51:10.686Z,25.46
2023-05-13T07:53:12.375Z,25.42
2023-05-13T07:55:13.840Z,25.29
2023-05-13T07:57:15.449Z,25.15
2023-05-13T07:59:18.160Z,24.98
2023-05-13T08:01:19.675Z,24.87
2023-05-13T08:03:21.313Z,24.77
2023-05-13T08:05:22.972Z,24.67
2023-05-13T08:07:24.682Z,24.58
2023-05-13T08:09:26.070Z,24.46
2023-05-13T08:11:27.805Z,24.39
2023-05-13T08:13:29.272Z,24.36
2023-05-13T08:15:30.868Z,24.33
2023-05-13T08:17:32.500Z,24.16
2023-05-13T08:19:33.945Z,24.07
2023-05-13T08:21:35.396Z,24.06
2023-05-13T08:23:44.844Z,23.99
2023-05-13T08:25:47.683Z,23.91
2023-05-13T08:27:49.250Z,23.85
2023-05-13T08:29:50.832Z,23.78
2023-05-13T08:31:53.775Z,23.70
2023-05-13T08:33:55.531Z,23.62
2023-05-13T08:35:57.248Z,23.54
2023-05-13T08:37:58.866Z,23.46
2023-05-13T08:40:01.630Z,23.44
2023-05-13T08:42:03.588Z,23.38
2023-05-13T08:44:06.871Z,23.36
2023-05-13T08:46:12.322Z,23.33
2023-05-13T08:48:15.460Z,23.28
2023-05-13T08:50:17.310Z,23.23
2023-05-13T08:52:19.278Z,23.16
2023-05-13T08:54:23.794Z,23.09
2023-05-13T08:56:28.390Z,23.06
2023-05-13T08:58:29.870Z,23.04
2023-05-13T09:00:31.738Z,23.02
2023-05-13T09:02:33.168Z,22.99
2023-05-13T09:04:37.725Z,22.97
2023-05-13T09:06:39.260Z,22.99
2023-05-13T09:08:40.880Z,23.00
2023-05-13T09:10:42.407Z,22.96
2023-05-13T09:12:44.419Z,22.91
2023-05-13T09:14:45.946Z,22.91
2023-05-13T09:16:47.768Z,22.87
2023-05-13T09:18:49.562Z,22.86
2023-05-13T09:20:51.141Z,22.83
2023-05-13T09:23:04.858Z,22.80
2023-05-13T09:25:07.852Z,22.77
2023-05-13T09:27:09.437Z,22.76
2023-05-13T09:29:15.436Z,22.81
2023-05-13T09:31:32.228Z,22.83
2023-05-13T09:33:33.898Z,22.84
2023-05-13T09:35:45.440Z,22.86
2023-05-13T09:37:48.003Z,22.90
2023-05-13T09:39:51.752Z,22.92
2023-05-13T09:41:53.279Z,22.95
2023-05-13T09:43:54.677Z,22.99
2023-05-13T09:45:56.809Z,23.01
2023-05-13T09:47:58.411Z,22.94
2023-05-13T09:50:01.686Z,22.87
2023-05-13T09:52:03.486Z,22.79
2023-05-13T09:54:06.484Z,22.79
2023-05-13T09:56:09.727Z,22.81
2023-05-13T09:58:12.093Z,22.80
2023-05-13T10:00:28.659Z,22.81
2023-05-13T10:02:34.840Z,22.77
2023-05-13T10:04:36.725Z,22.70
2023-05-13T10:06:39.000Z,22.72
2023-05-13T10:08:40.789Z,22.71
2023-05-13T10:10:45.779Z,22.73
2023-05-13T10:12:47.641Z,22.71
2023-05-13T10:14:49.993Z,22.69
2023-05-13T10:16:52.103Z,22.68
2023-05-13T10:18:53.909Z,22.71
2023-05-13T10:20:55.619Z,22.70
2023-05-13T10:22:57.888Z,22.68
2023-05-13T10:25:00.161Z,22.67
2023-05-13T10:27:02.118Z,22.64
2023-05-13T10:29:03.868Z,22.64
2023-05-13T10:31:05.381Z,22.69
2023-05-13T10:33:07.233Z,22.80
2023-05-13T10:35:13.029Z,22.85
2023-05-13T10:37:17.512Z,22.96
2023-05-13T10:39:24.961Z,23.08
2023-05-13T10:41:45.165Z,23.22
2023-05-13T10:43:46.748Z,23.31
2023-05-13T10:46:07.607Z,23.34
2023-05-13T10:48:11.921Z,23.38
2023-05-13T10:50:24.015Z,23.44
2023-05-13T10:52:40.935Z,23.50
2023-05-13T10:54:42.494Z,23.53
2023-05-13T10:56:43.922Z,23.49
2023-05-13T10:58:57.609Z,23.61
2023-05-13T11:01:17.705Z,23.74
2023-05-13T11:03:19.512Z,23.78
2023-05-13T11:05:21.482Z,23.80
2023-05-13T11:07:22.919Z,23.84
2023-05-13T11:09:28.815Z,23.90
2023-05-13T11:11:32.864Z,23.92
2023-05-13T11:13:37.491Z,23.95
2023-05-13T11:15:46.096Z,23.98
2023-05-13T11:17:48.118Z,24.01
2023-05-13T11:19:50.486Z,24.11
2023-05-13T11:21:53.472Z,24.20
2023-05-13T11:23:58.161Z,24.28
2023-05-13T11:26:12.048Z,24.29
2023-05-13T11:28:18.492Z,24.36
2023-05-13T11:30:26.008Z,24.37
2023-05-13T11:32:46.153Z,24.40
2023-05-13T11:34:50.955Z,24.45
2023-05-13T11:37:04.576Z,24.51
2023-05-13T11:39:13.931Z,24.55
2023-05-13T11:41:15.573Z,24.61
2023-05-13T11:43:21.781Z,24.60
2023-05-13T11:45:24.613Z,24.71
2023-05-13T11:47:29.207Z,24.77
2023-05-13T11:49:32.830Z,24.77
2023-05-13T11:51:34.403Z,24.78
2023-05-13T11:53:36.009Z,24.77
2023-05-13T11:55:37.449Z,24.82
2023-05-13T11:57:39.114Z,24.90
2023-05-13T11:59:47.980Z,24.96
2023-05-13T12:02:10.275Z,24.97
2023-05-13T12:04:12.759Z,24.97
2023-05-13T12:06:14.366Z,24.98
2023-05-13T12:08:16.081Z,24.93
2023-05-13T12:10:17.601Z,24.94
2023-05-13T12:12:19.754Z,24.98
2023-05-13T12:14:21.600Z,24.91
2023-05-13T12:16:24.004Z,24.81
2023-05-13T12:18:25.777Z,24.84
2023-05-13T12:20:27.523Z,24.85
2023-05-13T12:22:29.126Z,24.87
2023-05-13T12:24:34.076Z,24.78
2023-05-13T12:26:35.712Z,24.75
2023-05-13T12:28:37.209Z,24.63
2023-05-13T12:30:42.389Z,24.67
2023-05-13T12:32:46.942Z,24.75
2023-05-13T12:34:49.868Z,24.78
2023-05-13T12:36:51.762Z,24.79
2023-05-13T12:38:55.178Z,24.77
2023-05-13T12:40:57.428Z,24.83
2023-05-13T12:42:59.841Z,24.79
2023-05-13T12:45:02.202Z,24.78
2023-05-13T12:47:04.572Z,24.81
2023-05-13T12:49:06.427Z,24.81
2023-05-13T12:51:07.923Z,24.82
2023-05-13T12:53:09.826Z,24.74
2023-05-13T12:55:13.042Z,24.73
2023-05-13T12:57:17.802Z,24.72
2023-05-13T12:59:19.301Z,24.78
2023-05-13T13:01:21.055Z,24.80
2023-05-13T13:03:24.502Z,24.84
2023-05-13T13:05:26.527Z,24.86
2023-05-13T13:07:28.041Z,24.81
2023-05-13T13:09:29.525Z,24.69
2023-05-13T13:11:31.123Z,24.71
2023-05-13T13:13:33.246Z,24.75
2023-05-13T13:15:34.658Z,24.77
2023-05-13T13:17:36.539Z,24.81
2023-05-13T13:19:38.164Z,24.81
2023-05-13T13:21:40.193Z,24.84
2023-05-13T13:23:41.744Z,24.83
2023-05-13T13:25:43.592Z,24.83
2023-05-13T13:27:48.354Z,24.88
2023-05-13T13:29:49.823Z,24.94
2023-05-13T13:31:52.160Z,24.96
2023-05-13T13:33:58.877Z,24.97
2023-05-13T13:36:00.392Z,24.98
2023-05-13T13:38:01.774Z,24.96
2023-05-13T13:40:03.502Z,24.86
2023-05-13T13:42:05.054Z,24.89
2023-05-13T13:44:06.552Z,24.95
2023-05-13T13:46:08.140Z,25.01
2023-05-13T13:48:09.741Z,24.97
2023-05-13T13:50:11.364Z,24.94
2023-05-13T13:52:12.811Z,24.97
2023-05-13T13:54:14.423Z,24.99
2023-05-13T13:56:15.948Z,25.04
2023-05-13T13:58:17.600Z,25.02
2023-05-13T14:00:19.312Z,25.07
2023-05-13T14:02:20.878Z,25.14
2023-05-13T14:04:27.560Z,25.08
2023-05-13T14:06:29.040Z,25.07
2023-05-13T14:08:30.622Z,25.10
2023-05-13T14:10:32.210Z,25.07
2023-05-13T14:12:35.879Z,25.06
2023-05-13T14:14:37.358Z,25.09
2023-05-13T14:16:38.854Z,25.14
2023-05-13T14:18:40.446Z,25.17
2023-05-13T14:20:41.963Z,25.18
2023-05-13T14:22:43.432Z,25.03
2023-05-13T14:24:45.102Z,25.05
2023-05-13T14:26:46.724Z,24.98
2023-05-13T14:28:48.259Z,25.00
2023-05-13T14:30:49.694Z,25.04
2023-05-13T14:32:51.165Z,25.01
2023-05-13T14:34:52.606Z,25.07
2023-05-13T14:36:54.035Z,25.11
2023-05-13T14:38:55.658Z,25.05
2023-05-13T14:40:57.087Z,25.03
2023-05-13T14:42:58.521Z,25.00
2023-05-13T14:44:59.957Z,24.76
2023-05-13T14:47:01.717Z,24.82
2023-05-13T14:49:03.333Z,24.94
2023-05-13T14:51:05.087Z,24.91
2023-05-13T14:53:06.573Z,24.84
2023-05-13T14:55:08.199Z,24.95
2023-05-13T14:57:09.908Z,25.01
2023-05-13T14:59:11.613Z,25.09
2023-05-13T15:01:13.104Z,25.09
2023-05-13T15:03:14.723Z,25.00
2023-05-13T15:05:16.289Z,25.06
2023-05-13T15:07:17.851Z,25.09
2023-05-13T15:09:19.783Z,25.07
2023-05-13T15:11:21.661Z,25.10
2023-05-13T15:13:24.696Z,25.11
2023-05-13T15:15:26.344Z,25.08
2023-05-13T15:17:28.891Z,25.19
2023-05-13T15:19:30.748Z,25.23
2023-05-13T15:21:32.201Z,25.13
2023-05-13T15:23:34.046Z,25.14
2023-05-13T15:25:35.920Z,25.03
2023-05-13T15:27:37.511Z,24.97
2023-05-13T15:29:39.089Z,25.11
2023-05-13T15:31:40.795Z,25.22
2023-05-13T15:33:43.192Z,25.26
2023-05-13T15:35:46.499Z,25.30
2023-05-13T15:37:48.003Z,25.03
2023-05-13T15:39:49.497Z,25.08
2023-05-13T15:41:51.428Z,25.11
2023-05-13T15:43:52.859Z,25.17
2023-05-13T15:45:54.973Z,25.22
2023-05-13T15:47:56.575Z,25.23
2023-05-13T15:49:58.372Z,25.29
2023-05-13T15:52:00.582Z,25.20
2023-05-13T15:54:02.131Z,25.25
2023-05-13T15:56:03.655Z,25.24
2023-05-13T15:58:05.316Z,25.30
2023-05-13T16:00:07.680Z,25.34
2023-05-13T16:02:09.266Z,25.38
2023-05-13T16:04:11.019Z,25.38
2023-05-13T16:06:12.632Z,25.39
2023-05-13T16:08:14.207Z,25.38
2023-05-13T16:10:15.854Z,25.41
2023-05-13T16:12:17.302Z,25.36
2023-05-13T16:14:19.583Z,25.42
2023-05-13T16:16:21.681Z,25.44
2023-05-13T16:18:23.881Z,25.35
2023-05-13T16:20:25.921Z,25.27
2023-05-13T16:22:32.649Z,25.31
2023-05-13T16:24:34.385Z,25.26
2023-05-13T16:26:36.174Z,25.17
2023-05-13T16:28:37.842Z,25.06
2023-05-13T16:30:39.448Z,25.12
2023-05-13T16:32:41.233Z,25.02
2023-05-13T16:34:42.662Z,24.82
2023-05-13T16:36:44.086Z,24.92
2023-05-13T16:38:46.623Z,25.00
2023-05-13T16:40:48.241Z,25.00
2023-05-13T16:42:49.792Z,25.07
2023-05-13T16:44:51.659Z,24.80
2023-05-13T16:46:53.129Z,24.32
2023-05-13T16:48:55.820Z,24.40
2023-05-13T16:50:58.631Z,24.08
2023-05-13T16:53:00.095Z,24.07
2023-05-13T16:55:01.606Z,24.04
2023-05-13T16:57:03.124Z,24.15
2023-05-13T16:59:04.543Z,24.05
2023-05-13T17:01:06.092Z,24.01
2023-05-13T17:03:07.875Z,24.14
2023-05-13T17:05:09.685Z,23.61
2023-05-13T17:07:11.307Z,23.35
2023-05-13T17:09:12.850Z,23.56
2023-05-13T17:11:17.615Z,23.88
2023-05-13T17:13:19.744Z,23.98
2023-05-13T17:15:21.355Z,23.93
2023-05-13T17:17:22.906Z,23.92
2023-05-13T17:19:24.441Z,24.01
2023-05-13T17:21:25.861Z,23.96
2023-05-13T17:23:27.368Z,23.88
2023-05-13T17:25:28.854Z,24.01
2023-05-13T17:27:30.438Z,23.91
2023-05-13T17:29:31.918Z,23.96
2023-05-13T17:31:33.711Z,23.91
2023-05-13T17:33:35.324Z,23.93
2023-05-13T17:35:36.818Z,23.84
2023-05-13T17:37:38.193Z,23.64
2023-05-13T17:39:39.614Z,23.69
2023-05-13T17:41:41.073Z,23.66
2023-05-13T17:43:42.638Z,23.77
2023-05-13T17:45:45.193Z,23.85
2023-05-13T17:47:46.741Z,23.84
2023-05-13T17:49:48.315Z,23.90
2023-05-13T17:51:49.859Z,23.92
2023-05-13T17:53:51.381Z,23.93
2023-05-13T17:55:53.760Z,23.63
2023-05-13T17:57:58.966Z,23.67
2023-05-13T18:00:00.638Z,23.57
2023-05-13T18:02:02.224Z,23.55
2023-05-13T18:04:03.638Z,23.57
2023-05-13T18:06:05.255Z,23.64
2023-05-13T18:08:07.077Z,23.70
2023-05-13T18:10:08.809Z,23.75
2023-05-13T18:12:10.457Z,23.74
2023-05-13T18:14:12.093Z,23.73
2023-05-13T18:16:13.644Z,23.74
2023-05-13T18:18:16.267Z,23.75
2023-05-13T18:20:18.252Z,23.80
2023-05-13T18:22:19.744Z,23.81
2023-05-13T18:24:21.304Z,23.87
2023-05-13T18:26:23.266Z,23.85
2023-05-13T18:28:24.858Z,23.86
2023-05-13T18:30:26.476Z,23.85
2023-05-13T18:32:27.945Z,23.84
2023-05-13T18:34:29.756Z,23.73
2023-05-13T18:36:31.261Z,23.64
2023-05-13T18:38:32.736Z,23.67
2023-05-13T18:40:34.222Z,23.64
2023-05-13T18:42:35.788Z,23.77
2023-05-13T18:44:37.254Z,23.76
2023-05-13T18:46:38.787Z,23.81
2023-05-13T18:48:40.519Z,23.83
2023-05-13T18:50:41.976Z,23.82
2023-05-13T18:52:43.510Z,23.89
2023-05-13T18:54:45.020Z,23.92
2023-05-13T18:56:46.676Z,23.91
2023-05-13T18:58:48.186Z,23.93
2023-05-13T19:00:49.688Z,23.99
2023-05-13T19:02:51.264Z,23.99
2023-05-13T19:04:52.795Z,23.95
2023-05-13T19:06:54.228Z,23.95
2023-05-13T19:08:55.744Z,23.94
2023-05-13T19:10:57.188Z,23.96
2023-05-13T19:12:58.771Z,24.00
2023-05-13T19:15:00.275Z,24.02
2023-05-13T19:17:01.886Z,24.02
2023-05-13T19:19:03.470Z,23.98
2023-05-13T19:21:04.964Z,24.00
2023-05-13T19:23:06.528Z,24.00
2023-05-13T19:25:08.279Z,24.03
2023-05-13T19:27:10.077Z,24.07
2023-05-13T19:29:11.585Z,24.02
2023-05-13T19:31:13.100Z,24.10
2023-05-13T19:33:15.032Z,24.17
2023-05-13T19:35:16.649Z,24.17
2023-05-13T19:37:18.173Z,24.19
2023-05-13T19:39:19.604Z,24.19
2023-05-13T19:41:22.517Z,24.23
2023-05-13T19:43:24.443Z,24.32
2023-05-13T19:45:25.988Z,24.36
2023-05-13T19:47:27.781Z,24.41
2023-05-13T19:49:29.288Z,24.44
2023-05-13T19:51:30.993Z,24.52
2023-05-13T19:53:32.672Z,24.57
2023-05-13T19:55:34.925Z,24.63
2023-05-13T19:57:36.930Z,24.70
2023-05-13T19:59:41.582Z,24.77
2023-05-13T20:01:43.363Z,24.85
2023-05-13T20:03:44.857Z,24.93
2023-05-13T20:05:48.162Z,24.98
2023-05-13T20:07:49.618Z,25.02
2023-05-13T20:09:51.244Z,25.03
2023-05-13T20:11:53.068Z,25.04
2023-05-13T20:13:54.718Z,25.05
2023-05-13T20:15:56.185Z,25.07
2023-05-13T20:17:57.737Z,25.08
2023-05-13T20:19:59.307Z,25.09
2023-05-13T20:22:01.171Z,25.10
2023-05-13T20:24:02.668Z,25.13
2023-05-13T20:26:04.131Z,25.17
2023-05-13T20:28:05.906Z,25.19
2023-05-13T20:30:08.453Z,25.20
2023-05-13T20:32:10.183Z,25.24
2023-05-13T20:34:11.663Z,25.25
2023-05-13T20:36:13.762Z,25.27
2023-05-13T20:38:15.202Z,25.28
2023-05-13T20:40:16.758Z,25.31
2023-05-13T20:42:20.297Z,25.39
2023-05-13T20:44:22.161Z,25.43
2023-05-13T20:46:23.731Z,25.35
2023-05-13T20:48:25.223Z,25.30
2023-05-13T20:50:27.512Z,25.24
2023-05-13T20:52:29.002Z,25.18
2023-05-13T20:54:30.455Z,25.13
2023-05-13T20:56:31.907Z,25.08
2023-05-13T20:58:33.381Z,25.02
2023-05-13T21:00:34.836Z,25.00
2023-05-13T21:02:36.296Z,24.97
2023-05-13T21:04:37.717Z,24.95
2023-05-13T21:06:39.091Z,24.92
2023-05-13T21:08:40.606Z,24.90
2023-05-13T21:10:42.023Z,24.86
2023-05-13T21:12:47.469Z,24.85
2023-05-13T21:14:49.054Z,24.83
2023-05-13T21:16:50.680Z,24.83
2023-05-13T21:18:52.118Z,24.82
2023-05-13T21:20:53.697Z,24.80
2023-05-13T21:22:55.103Z,24.78
2023-05-13T21:24:56.672Z,24.79
2023-05-13T21:26:58.212Z,24.77
2023-05-13T21:28:59.644Z,24.74
2023-05-13T21:31:01.340Z,24.74
2023-05-13T21:33:02.983Z,24.75
2023-05-13T21:35:04.733Z,24.74
2023-05-13T21:37:06.192Z,24.76
2023-05-13T21:39:09.373Z,24.75
2023-05-13T21:41:10.847Z,24.74
2023-05-13T21:43:12.305Z,24.74
2023-05-13T21:45:15.021Z,24.76
2023-05-13T21:47:16.968Z,24.75
2023-05-13T21:49:18.360Z,24.75
2023-05-13T21:51:19.801Z,24.74
2023-05-13T21:53:22.343Z,24.73
2023-05-13T21:55:24.118Z,24.74
2023-05-13T21:57:25.570Z,24.75
2023-05-13T21:59:26.996Z,24.77
2023-05-13T22:01:28.559Z,24.78
2023-05-13T22:03:30.123Z,24.79
2023-05-13T22:05:31.703Z,24.79
2023-05-13T22:07:33.196Z,24.80
2023-05-13T22:09:34.722Z,24.80
2023-05-13T22:11:36.388Z,24.82
2023-05-13T22:13:38.155Z,24.81
2023-05-13T22:15:39.670Z,24.82
2023-05-13T22:17:41.355Z,24.83
2023-05-13T22:19:42.871Z,24.84
2023-05-13T22:21:44.475Z,24.84
2023-05-13T22:23:45.928Z,24.86
2023-05-13T22:25:47.464Z,24.86
2023-05-13T22:27:50.795Z,24.88
2023-05-13T22:29:52.295Z,24.88
2023-05-13T22:31:53.760Z,24.90
2023-05-13T22:33:55.304Z,24.90
2023-05-13T22:35:56.753Z,24.90
2023-05-13T22:37:58.321Z,24.91
2023-05-13T22:39:59.755Z,24.91
2023-05-13T22:42:01.212Z,24.92
2023-05-13T22:44:02.644Z,24.92
2023-05-13T22:46:04.185Z,24.93
2023-05-13T22:48:05.800Z,24.94
2023-05-13T22:50:07.643Z,24.95
2023-05-13T22:52:09.102Z,24.96
2023-05-13T22:54:10.637Z,24.97
2023-05-13T22:56:12.210Z,24.97
2023-05-13T22:58:13.732Z,24.98
2023-05-13T23:00:15.708Z,24.98
2023-05-13T23:02:17.308Z,24.99
2023-05-13T23:04:18.948Z,24.98
2023-05-13T23:06:20.581Z,24.97
2023-05-13T23:08:22.755Z,24.98
2023-05-13T23:10:24.330Z,24.99
2023-05-13T23:12:26.540Z,25.00
2023-05-13T23:14:29.986Z,24.91
2023-05-13T23:16:31.609Z,25.02
2023-05-13T23:18:34.300Z,25.03
2023-05-13T23:20:36.369Z,25.03
2023-05-13T23:22:38.596Z,25.04
2023-05-13T23:24:40.097Z,25.04
2023-05-13T23:26:42.208Z,25.04
2023-05-13T23:28:43.796Z,25.05
2023-05-13T23:30:45.339Z,25.05
2023-05-13T23:32:47.080Z,25.06
2023-05-13T23:34:48.816Z,25.05
2023-05-13T23:36:50.200Z,25.06
2023-05-13T23:38:51.709Z,25.07
2023-05-13T23:40:53.115Z,25.09
2023-05-13T23:42:54.650Z,25.08
2023-05-13T23:44:56.170Z,25.10
2023-05-13T23:46:58.595Z,25.10
2023-05-13T23:49:00.112Z,25.11
2023-05-13T23:51:01.552Z,25.11
2023-05-13T23:53:03.176Z,25.11
2023-05-13T23:55:05.153Z,25.10
2023-05-13T23:57:06.712Z,25.10
2023-05-13T23:59:08.586Z,25.10
